Time;durP1;ratioP1;P1;durP2;ratioP2;P2;SDS_P1;SDS_P2;PMS_P1;PMS_P2;Temp;Humidity;BMP_temperature;BMP_pressure;BME280_temperature;BME280_humidity;BME280_pressure;Samples;Min_cycle;Max_cycle;Signal;HPM_P1;HPM_P2
2022/03/31 00:05:58;;;;;;;8.32;3.50;;;;;;;;;;20911328;28;20135;-57
2022/03/31 00:16:00;;;;;;;9.60;4.50;;;;;;;;;;20910723;28;20045;-58
2022/03/31 00:26:02;;;;;;;8.43;3.70;;;;;;;;;;20909431;28;20586;-58
2022/03/31 00:36:04;;;;;;;8.13;3.35;;;;;;;;;;20909512;28;20085;-58
2022/03/31 00:46:06;;;;;;;6.18;3.50;;;;;;;;;;20910989;28;20085;-57
2022/03/31 00:56:08;;;;;;;5.88;3.78;;;;;;;;;;20925260;28;20071;-57
2022/03/31 01:06:10;;;;;;;11.50;4.25;;;;;;;;;;20940018;28;20045;-57
2022/03/31 01:16:12;;;;;;;4.97;3.33;;;;;;;;;;20924071;28;20412;-57
2022/03/31 01:26:15;;;;;;;6.72;3.78;;;;;;;;;;20923481;28;20090;-57
2022/03/31 01:36:19;;;;;;;5.53;3.33;;;;;;;;;;20922369;28;20057;-59
2022/03/31 01:46:25;;;;;;;6.95;3.90;;;;;;;;;;20922571;28;20545;-59
2022/03/31 01:56:34;;;;;;;6.57;3.47;;;;;;;;;;20920806;28;20083;-57
2022/03/31 02:06:43;;;;;;;12.07;4.18;;;;;;;;;;20917378;28;20056;-58
2022/03/31 02:16:48;;;;;;;7.53;3.97;;;;;;;;;;20918619;28;20508;-58
2022/03/31 02:26:52;;;;;;;7.30;3.95;;;;;;;;;;20917724;28;20056;-57
2022/03/31 02:36:54;;;;;;;8.60;3.85;;;;;;;;;;20917242;28;20049;-57
2022/03/31 02:46:57;;;;;;;8.60;3.72;;;;;;;;;;20917674;28;20059;-58
2022/03/31 02:57:04;;;;;;;6.20;4.10;;;;;;;;;;20917205;28;20053;-57
2022/03/31 03:07:07;;;;;;;7.28;3.75;;;;;;;;;;20915574;28;20053;-60
2022/03/31 03:17:11;;;;;;;8.38;3.95;;;;;;;;;;20914837;28;20136;-57
2022/03/31 03:27:14;;;;;;;5.95;4.00;;;;;;;;;;20914029;28;20063;-58
2022/03/31 03:37:16;;;;;;;6.40;3.97;;;;;;;;;;20913079;28;20049;-59
2022/03/31 03:47:18;;;;;;;7.40;3.72;;;;;;;;;;20912627;28;20076;-59
2022/03/31 03:57:23;;;;;;;5.97;3.90;;;;;;;;;;20913530;28;20052;-61
2022/03/31 04:07:25;;;;;;;7.40;4.07;;;;;;;;;;20912099;28;20049;-58
2022/03/31 04:17:28;;;;;;;11.52;4.57;;;;;;;;;;20911209;28;20132;-60
2022/03/31 04:27:30;;;;;;;7.35;4.50;;;;;;;;;;20922448;28;20049;-58
2022/03/31 04:37:35;;;;;;;7.37;4.37;;;;;;;;;;20927115;28;20504;-57
2022/03/31 04:47:38;;;;;;;8.60;5.10;;;;;;;;;;20925376;28;20057;-57
2022/03/31 04:57:40;;;;;;;10.00;4.78;;;;;;;;;;20925758;28;20547;-59
2022/03/31 05:07:42;;;;;;;12.38;4.55;;;;;;;;;;20924423;28;20120;-60
2022/03/31 05:17:45;;;;;;;9.20;5.30;;;;;;;;;;20922283;28;20131;-59
2022/03/31 05:27:48;;;;;;;9.35;5.55;;;;;;;;;;20922742;28;20493;-58
2022/03/31 05:37:50;;;;;;;7.75;5.20;;;;;;;;;;20923140;28;20481;-57
2022/03/31 05:47:54;;;;;;;9.95;6.28;;;;;;;;;;20921671;28;20493;-61
2022/03/31 05:57:56;;;;;;;10.68;6.07;;;;;;;;;;20920911;28;20413;-60
2022/03/31 06:07:59;;;;;;;9.98;6.65;;;;;;;;;;20918622;28;20053;-59
2022/03/31 06:18:02;;;;;;;16.33;6.68;;;;;;;;;;20919054;28;20053;-58
2022/03/31 06:28:04;;;;;;;12.38;7.10;;;;;;;;;;20918088;28;20061;-59
2022/03/31 06:38:07;;;;;;;11.10;6.53;;;;;;;;;;20917547;28;20041;-59
2022/03/31 06:48:09;;;;;;;9.63;6.47;;;;;;;;;;20915089;28;20056;-60
2022/03/31 06:58:11;;;;;;;11.35;6.20;;;;;;;;;;20916188;28;20041;-59
2022/03/31 07:08:13;;;;;;;13.32;5.97;;;;;;;;;;20914007;28;20493;-60
2022/03/31 07:18:15;;;;;;;11.32;5.70;;;;;;;;;;20914167;28;20110;-60
2022/03/31 07:28:17;;;;;;;8.50;5.63;;;;;;;;;;20913383;28;20053;-59
2022/03/31 07:38:20;;;;;;;9.75;6.10;;;;;;;;;;20912959;28;20128;-59
2022/03/31 07:48:22;;;;;;;8.85;5.22;;;;;;;;;;20912328;28;20057;-59
2022/03/31 07:58:24;;;;;;;9.25;5.85;;;;;;;;;;20912023;28;20096;-61
2022/03/31 08:08:28;;;;;;;10.32;5.45;;;;;;;;;;20911938;28;20501;-59
2022/03/31 08:18:31;;;;;;;12.77;5.70;;;;;;;;;;20912370;28;20509;-59
2022/03/31 08:28:33;;;;;;;12.15;5.80;;;;;;;;;;20910883;28;20497;-60
2022/03/31 08:38:35;;;;;;;10.85;6.57;;;;;;;;;;20910704;28;20045;-59
2022/03/31 08:48:37;;;;;;;11.02;7.18;;;;;;;;;;20910077;28;20516;-59
2022/03/31 08:58:40;;;;;;;9.75;6.43;;;;;;;;;;20909590;28;20052;-58
2022/03/31 09:08:53;;;;;;;14.35;6.88;;;;;;;;;;20912945;28;20386;-57
2022/03/31 09:19:09;;;;;;;11.60;5.88;;;;;;;;;;20923851;28;20057;-60
2022/03/31 09:29:15;;;;;;;8.43;5.63;;;;;;;;;;20870302;28;20122;-61
2022/03/31 09:39:18;;;;;;;6.75;4.68;;;;;;;;;;20867837;28;20052;-58
2022/03/31 09:49:25;;;;;;;12.68;6.30;;;;;;;;;;20904856;28;20059;-60
2022/03/31 09:59:32;;;;;;;10.15;5.40;;;;;;;;;;20901309;28;20049;-56
2022/03/31 10:09:36;;;;;;;13.13;5.32;;;;;;;;;;20902519;28;20396;-58
2022/03/31 10:19:40;;;;;;;8.67;4.97;;;;;;;;;;20902401;28;20040;-57
2022/03/31 10:29:45;;;;;;;9.00;5.00;;;;;;;;;;20917996;28;20099;-59
2022/03/31 10:39:52;;;;;;;15.47;4.60;;;;;;;;;;20916551;28;20048;-59
2022/03/31 10:49:54;;;;;;;13.07;5.13;;;;;;;;;;20916028;28;20052;-61
2022/03/31 10:59:56;;;;;;;9.90;4.50;;;;;;;;;;20915099;28;20048;-59
2022/03/31 11:10:01;;;;;;;7.50;4.40;;;;;;;;;;20915418;28;20459;-60
2022/03/31 11:20:06;;;;;;;;;;;;;;;;;;20914533;28;20045;-58
2022/03/31 11:30:12;;;;;;;7.82;4.55;;;;;;;;;;20911361;28;19944;-58
2022/03/31 11:40:21;;;;;;;7.57;4.10;;;;;;;;;;20910266;28;20044;-60
2022/03/31 11:50:24;;;;;;;8.32;4.40;;;;;;;;;;20911421;28;20056;-58
2022/03/31 12:00:28;;;;;;;11.13;5.22;;;;;;;;;;20913183;28;20128;-59
2022/03/31 12:10:30;;;;;;;9.85;5.07;;;;;;;;;;20911752;28;20049;-58
2022/03/31 12:20:33;;;;;;;14.07;5.57;;;;;;;;;;20911936;28;20199;-59
2022/03/31 12:30:52;;;;;;;9.10;5.30;;;;;;;;;;20909737;28;20088;-61
2022/03/31 12:40:54;;;;;;;10.30;5.63;;;;;;;;;;20909981;28;20051;-59
2022/03/31 12:51:01;;;;;;;10.63;5.80;;;;;;;;;;20926043;28;20050;-59
2022/03/31 13:01:04;;;;;;;10.32;5.30;;;;;;;;;;20924527;28;20045;-59
2022/03/31 13:11:07;;;;;;;9.30;4.35;;;;;;;;;;20924717;28;20409;-59
2022/03/31 13:21:10;;;;;;;8.82;4.60;;;;;;;;;;20923730;28;20095;-59
2022/03/31 13:31:13;;;;;;;7.03;4.13;;;;;;;;;;20921748;28;20052;-59
2022/03/31 13:41:15;;;;;;;7.40;4.50;;;;;;;;;;20921492;28;20543;-59
2022/03/31 13:51:18;;;;;;;6.10;4.00;;;;;;;;;;20920373;28;20118;-60
2022/03/31 14:01:20;;;;;;;8.30;4.28;;;;;;;;;;20918689;28;20416;-60
2022/03/31 14:11:25;;;;;;;9.55;5.00;;;;;;;;;;20918278;28;20056;-60
2022/03/31 14:21:27;;;;;;;7.43;3.80;;;;;;;;;;20918613;28;20052;-59
2022/03/31 14:31:29;;;;;;;9.50;3.65;;;;;;;;;;20916783;28;20049;-57
2022/03/31 14:41:32;;;;;;;13.30;3.55;;;;;;;;;;20912535;28;20075;-58
2022/03/31 14:51:34;;;;;;;5.18;3.83;;;;;;;;;;20912923;28;20056;-57
2022/03/31 15:01:37;;;;;;;5.93;3.40;;;;;;;;;;20911569;28;20041;-59
2022/03/31 15:21:59;;;;;;;6.40;3.80;;;;;;;;;;20913499;28;20084;-59
2022/03/31 15:32:02;;;;;;;7.70;3.95;;;;;;;;;;20912691;28;20143;-58
2022/03/31 15:42:05;;;;;;;7.35;3.10;;;;;;;;;;20911522;28;20045;-60
2022/03/31 15:52:08;;;;;;;6.40;2.60;;;;;;;;;;20911764;28;20130;-63
2022/03/31 16:02:10;;;;;;;2.75;1.73;;;;;;;;;;20907861;28;20099;-59
2022/03/31 16:12:13;;;;;;;4.68;2.10;;;;;;;;;;20896993;28;20095;-58
2022/03/31 16:22:18;;;;;;;3.90;2.50;;;;;;;;;;20860490;28;20049;-57
2022/03/31 16:32:22;;;;;;;5.78;2.95;;;;;;;;;;20860979;28;20053;-61
2022/03/31 16:42:24;;;;;;;3.47;2.40;;;;;;;;;;20848375;28;20045;-66
2022/03/31 16:52:27;;;;;;;4.15;1.92;;;;;;;;;;20902129;28;20049;-64
2022/03/31 17:02:31;;;;;;;6.10;1.77;;;;;;;;;;20954591;28;20048;-71
2022/03/31 17:12:33;;;;;;;2.97;1.98;;;;;;;;;;20911445;28;20144;-60
2022/03/31 17:22:37;;;;;;;3.90;2.15;;;;;;;;;;20921808;28;20049;-60
2022/03/31 17:32:39;;;;;;;5.95;2.60;;;;;;;;;;20899516;28;20132;-61
2022/03/31 17:42:42;;;;;;;5.45;2.28;;;;;;;;;;20869273;28;20502;-55
2022/03/31 17:52:45;;;;;;;4.75;2.88;;;;;;;;;;20837534;28;20052;-60
2022/03/31 18:02:50;;;;;;;3.40;1.90;;;;;;;;;;20868539;28;20049;-55
2022/03/31 18:12:54;;;;;;;3.37;1.90;;;;;;;;;;20835536;28;20062;-55
2022/03/31 18:22:58;;;;;;;3.42;1.65;;;;;;;;;;20835881;28;20290;-57
2022/03/31 18:43:22;;;;;;;3.67;2.40;;;;;;;;;;20833247;28;20121;-56
2022/03/31 18:53:26;;;;;;;1.70;1.20;;;;;;;;;;20834667;28;20474;-61
2022/03/31 19:03:28;;;;;;;2.08;1.27;;;;;;;;;;20864702;28;20076;-56
2022/03/31 19:13:30;;;;;;;5.45;1.80;;;;;;;;;;20832787;28;20375;-56
2022/03/31 19:23:31;;;;;;;4.22;2.42;;;;;;;;;;20863064;28;20095;-63
2022/03/31 19:33:33;;;;;;;3.80;2.10;;;;;;;;;;20831163;28;20045;-63
2022/03/31 19:43:38;;;;;;;3.10;2.05;;;;;;;;;;20829866;28;20057;-63
2022/03/31 19:53:40;;;;;;;2.13;1.37;;;;;;;;;;20829262;28;20102;-56
2022/03/31 20:03:44;;;;;;;4.63;2.70;;;;;;;;;;20829001;28;20056;-64
2022/03/31 20:13:46;;;;;;;4.80;2.40;;;;;;;;;;20859982;28;20103;-61
2022/03/31 20:23:48;;;;;;;3.33;2.20;;;;;;;;;;20828383;28;20053;-62
2022/03/31 20:33:51;;;;;;;3.88;2.72;;;;;;;;;;20828135;28;20136;-59
2022/03/31 20:43:54;;;;;;;3.78;1.92;;;;;;;;;;20828289;28;20456;-59
2022/03/31 20:53:56;;;;;;;4.55;2.20;;;;;;;;;;20827567;28;20129;-63
2022/03/31 21:04:01;;;;;;;4.95;2.58;;;;;;;;;;20828981;28;20084;-57
2022/03/31 21:14:03;;;;;;;2.80;1.30;;;;;;;;;;20841845;28;20464;-58
2022/03/31 21:35:03;;;;;;;1.83;0.88;;;;;;;;;;20508543;28;20043;-56
2022/03/31 21:45:07;;;;;;;1.80;0.80;;;;;;;;;;20507082;29;20047;-63
2022/03/31 21:55:11;;;;;;;1.92;0.90;;;;;;;;;;20507043;28;20078;-57
2022/03/31 22:05:13;;;;;;;2.57;0.97;;;;;;;;;;20568823;28;20453;-64
2022/03/31 22:15:15;;;;;;;2.35;1.00;;;;;;;;;;20836696;28;20052;-61
2022/03/31 22:25:17;;;;;;;2.20;1.20;;;;;;;;;;20836189;28;20053;-60
2022/03/31 22:35:20;;;;;;;1.85;0.80;;;;;;;;;;20835786;28;20060;-64
2022/03/31 22:45:22;;;;;;;1.77;1.00;;;;;;;;;;20835947;28;20133;-64
2022/03/31 22:55:25;;;;;;;2.08;1.40;;;;;;;;;;20833411;28;20053;-64
2022/03/31 23:05:27;;;;;;;1.83;0.85;;;;;;;;;;20833422;28;20057;-62
2022/03/31 23:15:30;;;;;;;1.63;1.00;;;;;;;;;;20832988;28;20410;-57
2022/03/31 23:25:32;;;;;;;2.45;1.20;;;;;;;;;;20831455;28;20053;-61
2022/03/31 23:35:33;;;;;;;1.23;0.80;;;;;;;;;;20831460;28;20049;-62
2022/03/31 23:45:36;;;;;;;3.35;1.20;;;;;;;;;;20831254;28;20107;-65
2022/03/31 23:55:38;;;;;;;1.58;0.90;;;;;;;;;;20829732;28;20056;-58
